Time;durP1;ratioP1;P1;durP2;ratioP2;P2;SDS_P1;SDS_P2;PMS_P1;PMS_P2;Temp;Humidity;BMP_temperature;BMP_pressure;BME280_temperature;BME280_humidity;BME280_pressure;Samples;Min_cycle;Max_cycle;Signal;HPM_P1;HPM_P2
2024/01/14 00:01:15;;;;;;;;;;;17.50;45.90;;;;;;1600716;73;601;-73
2024/01/14 00:03:16;;;;;;;;;;;17.50;45.90;;;;;;1590610;73;933;-75
2024/01/14 00:05:18;;;;;;;;;;;17.50;45.90;;;;;;1594596;73;558;-72
2024/01/14 00:07:20;;;;;;;;;;;17.50;45.90;;;;;;1602665;73;1952;-72
2024/01/14 00:09:22;;;;;;;;;;;17.50;46.00;;;;;;1594877;73;1184;-75
2024/01/14 00:11:24;;;;;;;;;;;17.50;46.00;;;;;;1605030;73;749;-76
2024/01/14 00:13:26;;;;;;;;;;;17.50;46.00;;;;;;1597233;73;720;-74
2024/01/14 00:15:28;;;;;;;;;;;17.50;46.00;;;;;;1599549;73;721;-73
2024/01/14 00:17:30;;;;;;;;;;;17.50;46.00;;;;;;1585070;73;1165;-72
2024/01/14 00:19:32;;;;;;;;;;;17.50;46.10;;;;;;1596276;73;712;-75
2024/01/14 00:21:33;;;;;;;;;;;17.50;46.10;;;;;;1589525;73;674;-73
2024/01/14 00:23:35;;;;;;;;;;;17.50;46.20;;;;;;1602008;73;1417;-73
2024/01/14 00:25:37;;;;;;;;;;;17.50;46.20;;;;;;1586867;73;664;-74
2024/01/14 00:27:39;;;;;;;;;;;17.60;46.20;;;;;;1607990;73;1923;-76
2024/01/14 00:29:41;;;;;;;;;;;17.50;46.30;;;;;;1603248;73;643;-74
2024/01/14 00:31:43;;;;;;;;;;;17.60;46.30;;;;;;1602544;73;745;-71
2024/01/14 00:33:45;;;;;;;;;;;17.50;46.30;;;;;;1600070;73;598;-74
2024/01/14 00:35:47;;;;;;;;;;;17.50;46.30;;;;;;1596430;73;869;-75
2024/01/14 00:37:49;;;;;;;;;;;17.60;46.30;;;;;;1597614;73;1674;-73
2024/01/14 00:39:51;;;;;;;;;;;17.60;46.50;;;;;;1598480;73;673;-73
2024/01/14 00:41:53;;;;;;;;;;;17.60;46.60;;;;;;1588200;73;626;-74
2024/01/14 00:43:55;;;;;;;;;;;17.50;46.50;;;;;;1590029;73;710;-74
2024/01/14 00:45:57;;;;;;;;;;;17.50;46.60;;;;;;1592229;73;670;-71
2024/01/14 00:47:58;;;;;;;;;;;17.60;46.50;;;;;;1588082;73;1949;-75
2024/01/14 00:50:00;;;;;;;;;;;17.60;46.50;;;;;;1610068;73;1263;-76
2024/01/14 00:52:02;;;;;;;;;;;17.60;46.50;;;;;;1601854;73;672;-75
2024/01/14 00:54:04;;;;;;;;;;;17.60;46.60;;;;;;1602311;73;604;-72
2024/01/14 00:56:06;;;;;;;;;;;17.60;46.70;;;;;;1600759;73;642;-71
2024/01/14 00:58:08;;;;;;;;;;;17.60;46.60;;;;;;1592252;73;1109;-75
2024/01/14 01:00:10;;;;;;;;;;;17.70;46.80;;;;;;1610658;73;809;-74
2024/01/14 01:02:12;;;;;;;;;;;17.60;46.80;;;;;;1600554;73;664;-73
2024/01/14 01:04:14;;;;;;;;;;;17.70;46.90;;;;;;1603275;73;1457;-75
2024/01/14 01:06:16;;;;;;;;;;;17.60;46.80;;;;;;1596535;73;603;-72
2024/01/14 01:08:18;;;;;;;;;;;17.60;46.80;;;;;;1595491;73;1950;-74
2024/01/14 01:10:20;;;;;;;;;;;17.60;46.90;;;;;;1600110;73;724;-76
2024/01/14 01:12:21;;;;;;;;;;;17.60;46.80;;;;;;1581999;74;701;-73
2024/01/14 01:14:23;;;;;;;;;;;17.70;46.90;;;;;;1538069;75;799;-76
2024/01/14 01:16:25;;;;;;;;;;;17.60;46.90;;;;;;1550570;75;1168;-78
2024/01/14 01:18:27;;;;;;;;;;;17.70;47.10;;;;;;1541481;75;1331;-76
2024/01/14 01:20:29;;;;;;;;;;;17.60;47.00;;;;;;1539094;75;717;-77
2024/01/14 01:22:31;;;;;;;;;;;17.80;47.20;;;;;;1556419;75;676;-76
2024/01/14 01:24:33;;;;;;;;;;;17.60;47.10;;;;;;1566273;74;722;-76
2024/01/14 01:26:34;;;;;;;;;;;17.70;47.30;;;;;;1565849;74;1157;-75
2024/01/14 01:28:36;;;;;;;;;;;17.60;47.30;;;;;;1557791;74;1927;-74
2024/01/14 01:30:38;;;;;;;;;;;17.70;47.40;;;;;;1565537;74;717;-76
2024/01/14 01:32:40;;;;;;;;;;;17.70;47.40;;;;;;1576484;74;1560;-76
2024/01/14 01:34:43;;;;;;;;;;;17.70;47.50;;;;;;1566002;74;715;-75
2024/01/14 01:36:44;;;;;;;;;;;17.60;47.50;;;;;;1565615;74;1162;-73
2024/01/14 01:38:46;;;;;;;;;;;17.60;47.50;;;;;;1567169;74;685;-73
2024/01/14 01:40:48;;;;;;;;;;;17.70;47.60;;;;;;1564339;74;738;-74
2024/01/14 01:42:50;;;;;;;;;;;17.60;47.60;;;;;;1568000;74;666;-75
2024/01/14 01:44:52;;;;;;;;;;;17.70;47.70;;;;;;1553957;74;772;-74
2024/01/14 01:46:54;;;;;;;;;;;17.60;47.60;;;;;;1565474;74;1544;-74
2024/01/14 01:48:56;;;;;;;;;;;17.60;47.60;;;;;;1562002;74;1930;-74
2024/01/14 01:50:58;;;;;;;;;;;17.70;47.80;;;;;;1562312;74;760;-76
2024/01/14 01:53:00;;;;;;;;;;;17.70;47.80;;;;;;1566372;74;726;-76
2024/01/14 01:55:03;;;;;;;;;;;17.60;47.70;;;;;;1540754;76;632;-76
2024/01/14 01:57:05;;;;;;;;;;;17.70;47.80;;;;;;1565113;74;1148;-75
2024/01/14 01:59:07;;;;;;;;;;;17.60;47.80;;;;;;1564672;74;659;-76
2024/01/14 02:01:09;;;;;;;;;;;17.70;47.90;;;;;;1566929;74;1528;-76
2024/01/14 02:03:11;;;;;;;;;;;17.70;47.90;;;;;;1561976;74;715;-77
2024/01/14 02:05:13;;;;;;;;;;;17.70;47.90;;;;;;1567265;75;636;-76
2024/01/14 02:07:15;;;;;;;;;;;17.70;47.90;;;;;;1561535;74;1183;-76
2024/01/14 02:09:17;;;;;;;;;;;17.70;47.80;;;;;;1561388;74;1944;-76
2024/01/14 02:11:19;;;;;;;;;;;17.70;47.90;;;;;;1565848;74;749;-72
2024/01/14 02:13:21;;;;;;;;;;;17.80;48.10;;;;;;1564126;74;671;-76
2024/01/14 02:15:23;;;;;;;;;;;17.70;48.00;;;;;;1572019;74;1292;-75
2024/01/14 02:17:25;;;;;;;;;;;17.70;48.10;;;;;;1567820;75;1180;-72
2024/01/14 02:19:27;;;;;;;;;;;17.70;48.20;;;;;;1572642;74;788;-75
2024/01/14 02:21:33;;;;;;;;;;;17.70;48.20;;;;;;1568958;74;738;-75
2024/01/14 02:23:35;;;;;;;;;;;17.70;48.10;;;;;;1560628;74;660;-76
2024/01/14 02:25:37;;;;;;;;;;;17.70;48.20;;;;;;1572639;74;781;-71
2024/01/14 02:27:39;;;;;;;;;;;17.70;48.20;;;;;;1564161;74;1194;-76
2024/01/14 02:29:41;;;;;;;;;;;17.70;48.20;;;;;;1564875;74;1928;-73
2024/01/14 02:31:44;;;;;;;;;;;17.70;48.20;;;;;;1566982;74;741;-72
2024/01/14 02:33:45;;;;;;;;;;;17.70;48.20;;;;;;1566499;74;706;-72
2024/01/14 02:35:47;;;;;;;;;;;17.70;48.20;;;;;;1567069;75;733;-74
2024/01/14 02:37:49;;;;;;;;;;;17.70;48.20;;;;;;1567654;74;1130;-73
2024/01/14 02:39:51;;;;;;;;;;;17.70;48.10;;;;;;1560262;74;764;-76
2024/01/14 02:41:53;;;;;;;;;;;17.70;48.10;;;;;;1564857;74;736;-74
2024/01/14 02:43:55;;;;;;;;;;;17.70;48.20;;;;;;1560360;74;759;-77
2024/01/14 02:45:57;;;;;;;;;;;17.70;48.20;;;;;;1560055;74;1014;-73
2024/01/14 02:47:59;;;;;;;;;;;17.70;48.20;;;;;;1563657;74;1144;-72
2024/01/14 02:50:01;;;;;;;;;;;17.70;48.20;;;;;;1565514;74;1947;-75
2024/01/14 02:52:03;;;;;;;;;;;17.70;48.30;;;;;;1563893;74;594;-76
2024/01/14 02:54:05;;;;;;;;;;;17.70;48.30;;;;;;1573745;74;717;-77
2024/01/14 02:56:07;;;;;;;;;;;17.80;48.30;;;;;;1567467;74;726;-73
2024/01/14 02:58:09;;;;;;;;;;;17.70;48.30;;;;;;1568439;74;1125;-76
2024/01/14 03:00:11;;;;;;;;;;;17.80;48.30;;;;;;1564151;74;677;-74
2024/01/14 03:02:13;;;;;;;;;;;17.80;48.30;;;;;;1562844;74;746;-73
2024/01/14 03:04:15;;;;;;;;;;;17.70;48.30;;;;;;1564493;74;818;-75
2024/01/14 03:06:17;;;;;;;;;;;17.80;48.30;;;;;;1574810;74;767;-77
2024/01/14 03:08:19;;;;;;;;;;;17.70;48.30;;;;;;1563992;74;1142;-75
2024/01/14 03:10:22;;;;;;;;;;;17.70;48.30;;;;;;1558535;74;1927;-78
2024/01/14 03:12:24;;;;;;;;;;;17.80;48.30;;;;;;1568089;74;652;-75
2024/01/14 03:14:26;;;;;;;;;;;17.80;48.30;;;;;;1563848;74;741;-72
2024/01/14 03:16:28;;;;;;;;;;;17.80;48.20;;;;;;1561586;74;1137;-71
2024/01/14 03:18:30;;;;;;;;;;;17.70;48.30;;;;;;1573250;74;756;-76
2024/01/14 03:20:32;;;;;;;;;;;17.80;48.20;;;;;;1567175;74;660;-75
2024/01/14 03:22:34;;;;;;;;;;;17.80;48.30;;;;;;1565607;74;705;-74
2024/01/14 03:24:36;;;;;;;;;;;17.80;48.20;;;;;;1571314;74;618;-74
2024/01/14 03:26:38;;;;;;;;;;;17.80;48.30;;;;;;1566666;74;1142;-76
2024/01/14 03:28:40;;;;;;;;;;;17.70;48.20;;;;;;1567183;74;1931;-74
2024/01/14 03:30:44;;;;;;;;;;;17.80;48.30;;;;;;1565672;74;654;-74
2024/01/14 03:32:45;;;;;;;;;;;17.80;48.40;;;;;;1560253;74;718;-74
2024/01/14 03:34:47;;;;;;;;;;;17.80;48.30;;;;;;1566154;74;623;-75
2024/01/14 03:36:49;;;;;;;;;;;17.70;48.40;;;;;;1567145;74;1151;-73
2024/01/14 03:38:51;;;;;;;;;;;17.70;48.40;;;;;;1570321;74;645;-76
2024/01/14 03:40:53;;;;;;;;;;;17.70;48.50;;;;;;1569528;74;720;-73
2024/01/14 03:42:55;;;;;;;;;;;17.80;48.40;;;;;;1580147;74;719;-73
2024/01/14 03:44:57;;;;;;;;;;;17.80;48.50;;;;;;1571790;74;769;-76
2024/01/14 03:46:59;;;;;;;;;;;17.80;48.50;;;;;;1562547;74;1135;-74
2024/01/14 03:49:00;;;;;;;;;;;17.80;48.50;;;;;;1569921;74;1923;-73
2024/01/14 03:51:02;;;;;;;;;;;17.70;48.50;;;;;;1565412;74;616;-73
2024/01/14 03:53:04;;;;;;;;;;;17.70;48.60;;;;;;1567836;74;665;-75
2024/01/14 03:55:06;;;;;;;;;;;17.80;48.60;;;;;;1562034;74;725;-76
2024/01/14 03:57:08;;;;;;;;;;;17.80;48.60;;;;;;1574209;74;1137;-72
2024/01/14 03:59:10;;;;;;;;;;;17.80;48.60;;;;;;1570588;74;710;-75
2024/01/14 04:01:18;;;;;;;;;;;17.80;48.60;;;;;;1561390;74;701;-75
2024/01/14 04:03:20;;;;;;;;;;;17.80;48.60;;;;;;1561180;74;688;-76
2024/01/14 04:05:22;;;;;;;;;;;17.80;48.60;;;;;;1566809;74;673;-73
2024/01/14 04:07:23;;;;;;;;;;;17.80;48.60;;;;;;1565681;74;1155;-72
2024/01/14 04:09:25;;;;;;;;;;;17.80;48.60;;;;;;1566502;74;1946;-71
2024/01/14 04:11:27;;;;;;;;;;;17.80;48.60;;;;;;1567505;74;714;-76
2024/01/14 04:13:29;;;;;;;;;;;17.80;48.60;;;;;;1563932;74;749;-75
2024/01/14 04:15:31;;;;;;;;;;;17.80;48.60;;;;;;1570720;74;734;-74
2024/01/14 04:17:33;;;;;;;;;;;17.80;48.60;;;;;;1564696;74;1141;-76
2024/01/14 04:19:36;;;;;;;;;;;17.80;48.60;;;;;;1569439;74;571;-75
2024/01/14 04:21:38;;;;;;;;;;;17.80;48.70;;;;;;1562851;74;715;-75
2024/01/14 04:23:40;;;;;;;;;;;17.80;48.70;;;;;;1561048;74;647;-75
2024/01/14 04:25:42;;;;;;;;;;;17.80;48.70;;;;;;1555608;74;658;-74
2024/01/14 04:27:44;;;;;;;;;;;17.80;48.70;;;;;;1570477;74;1152;-78
2024/01/14 04:29:46;;;;;;;;;;;17.80;48.60;;;;;;1568755;74;1933;-73
2024/01/14 04:31:48;;;;;;;;;;;17.80;48.70;;;;;;1574365;74;751;-75
2024/01/14 04:33:50;;;;;;;;;;;17.80;48.60;;;;;;1566054;74;625;-74
2024/01/14 04:35:52;;;;;;;;;;;17.80;48.70;;;;;;1567325;74;612;-74
2024/01/14 04:37:54;;;;;;;;;;;17.80;48.80;;;;;;1569866;74;1157;-74
2024/01/14 04:39:56;;;;;;;;;;;17.80;48.80;;;;;;1560494;74;652;-76
2024/01/14 04:41:58;;;;;;;;;;;17.80;48.70;;;;;;1564061;74;605;-72
2024/01/14 04:44:00;;;;;;;;;;;17.80;48.80;;;;;;1570504;74;674;-73
2024/01/14 04:46:02;;;;;;;;;;;17.80;48.70;;;;;;1569735;74;829;-75
2024/01/14 04:48:04;;;;;;;;;;;17.80;48.80;;;;;;1562708;74;1174;-74
2024/01/14 04:50:06;;;;;;;;;;;17.80;48.70;;;;;;1569583;74;1940;-74
2024/01/14 04:52:08;;;;;;;;;;;17.80;48.80;;;;;;1559878;74;672;-74
2024/01/14 04:54:11;;;;;;;;;;;17.80;48.80;;;;;;1568987;74;670;-76
2024/01/14 04:56:13;;;;;;;;;;;17.80;48.80;;;;;;1571044;74;580;-72
2024/01/14 04:58:15;;;;;;;;;;;17.90;48.90;;;;;;1575252;74;1102;-72
2024/01/14 05:00:16;;;;;;;;;;;17.80;48.70;;;;;;1569474;74;738;-75
2024/01/14 05:02:18;;;;;;;;;;;17.90;48.90;;;;;;1569151;74;673;-76
2024/01/14 05:04:20;;;;;;;;;;;17.90;48.90;;;;;;1572900;74;921;-74
2024/01/14 05:06:22;;;;;;;;;;;17.80;48.70;;;;;;1564753;74;1181;-73
2024/01/14 05:08:24;;;;;;;;;;;17.80;48.80;;;;;;1547384;74;650;-74
2024/01/14 05:10:26;;;;;;;;;;;17.80;48.80;;;;;;1566021;74;1918;-76
2024/01/14 05:12:28;;;;;;;;;;;17.80;48.80;;;;;;1567258;74;620;-73
2024/01/14 05:14:30;;;;;;;;;;;17.80;48.90;;;;;;1571043;74;666;-76
2024/01/14 05:16:32;;;;;;;;;;;17.90;49.00;;;;;;1561637;74;1123;-78
2024/01/14 05:18:34;;;;;;;;;;;17.80;49.00;;;;;;1562914;74;633;-73
2024/01/14 05:20:36;;;;;;;;;;;17.90;49.00;;;;;;1567800;74;648;-76
2024/01/14 05:22:38;;;;;;;;;;;17.90;49.10;;;;;;1569565;74;595;-75
2024/01/14 05:24:42;;;;;;;;;;;17.90;49.20;;;;;;1573065;74;1451;-74
2024/01/14 05:26:44;;;;;;;;;;;17.90;49.20;;;;;;1562763;74;1136;-71
2024/01/14 05:28:46;;;;;;;;;;;17.90;49.20;;;;;;1567029;74;703;-75
2024/01/14 05:30:48;;;;;;;;;;;17.80;49.10;;;;;;1571567;74;1928;-74
2024/01/14 05:32:50;;;;;;;;;;;17.80;49.00;;;;;;1565893;74;700;-75
2024/01/14 05:34:52;;;;;;;;;;;17.90;49.20;;;;;;1571218;74;684;-72
2024/01/14 05:36:54;;;;;;;;;;;17.90;49.30;;;;;;1555007;74;1142;-75
2024/01/14 05:38:56;;;;;;;;;;;17.80;49.10;;;;;;1561240;74;617;-76
2024/01/14 05:40:58;;;;;;;;;;;17.90;49.30;;;;;;1565163;74;603;-74
2024/01/14 05:43:00;;;;;;;;;;;17.90;49.30;;;;;;1574196;74;728;-74
2024/01/14 05:45:01;;;;;;;;;;;17.90;49.30;;;;;;1567204;74;708;-74
2024/01/14 05:47:03;;;;;;;;;;;17.90;49.40;;;;;;1565474;74;1165;-76
2024/01/14 05:49:05;;;;;;;;;;;17.90;49.30;;;;;;1561660;74;726;-71
2024/01/14 05:51:07;;;;;;;;;;;17.90;49.40;;;;;;1558977;74;1943;-72
2024/01/14 05:53:09;;;;;;;;;;;17.90;49.40;;;;;;1561811;74;708;-75
2024/01/14 05:55:12;;;;;;;;;;;17.90;49.30;;;;;;1573178;74;720;-77
2024/01/14 05:57:14;;;;;;;;;;;17.90;49.30;;;;;;1553239;74;1148;-70
2024/01/14 05:59:16;;;;;;;;;;;17.90;49.40;;;;;;1567840;74;710;-73
2024/01/14 06:01:18;;;;;;;;;;;17.90;49.40;;;;;;1550919;74;820;-76
2024/01/14 06:03:20;;;;;;;;;;;17.90;49.30;;;;;;1550585;74;712;-75
2024/01/14 06:05:22;;;;;;;;;;;17.90;49.30;;;;;;1565745;74;630;-74
2024/01/14 06:07:24;;;;;;;;;;;17.90;49.30;;;;;;1557775;74;1148;-74
2024/01/14 06:09:26;;;;;;;;;;;17.90;49.30;;;;;;1561718;74;607;-73
2024/01/14 06:11:28;;;;;;;;;;;17.90;49.30;;;;;;1568607;74;1936;-75
2024/01/14 06:13:30;;;;;;;;;;;17.90;49.30;;;;;;1563739;74;652;-76
2024/01/14 06:15:32;;;;;;;;;;;17.90;49.30;;;;;;1570623;74;660;-73
2024/01/14 06:17:34;;;;;;;;;;;17.90;49.20;;;;;;1569026;74;1101;-74
2024/01/14 06:19:36;;;;;;;;;;;17.90;49.20;;;;;;1558470;74;626;-72
2024/01/14 06:21:41;;;;;;;;;;;17.90;49.20;;;;;;1563039;74;1481;-73
2024/01/14 06:23:43;;;;;;;;;;;17.90;49.20;;;;;;1555428;74;733;-75
2024/01/14 06:25:45;;;;;;;;;;;17.90;49.20;;;;;;1565126;74;762;-74
2024/01/14 06:27:47;;;;;;;;;;;17.90;49.20;;;;;;1565198;75;1106;-74
2024/01/14 06:29:48;;;;;;;;;;;17.90;49.10;;;;;;1565171;74;1941;-73
2024/01/14 06:31:50;;;;;;;;;;;17.90;49.00;;;;;;1570226;74;685;-75
2024/01/14 06:33:52;;;;;;;;;;;17.90;48.90;;;;;;1566918;74;728;-75
2024/01/14 06:35:54;;;;;;;;;;;17.90;48.90;;;;;;1563538;75;675;-76
2024/01/14 06:37:56;;;;;;;;;;;17.90;48.90;;;;;;1565947;74;1109;-76
2024/01/14 06:39:58;;;;;;;;;;;17.90;48.80;;;;;;1553605;74;626;-76
2024/01/14 06:42:00;;;;;;;;;;;17.90;48.70;;;;;;1562566;74;604;-73
2024/01/14 06:44:02;;;;;;;;;;;17.90;48.60;;;;;;1563811;74;578;-74
2024/01/14 06:46:04;;;;;;;;;;;17.90;48.70;;;;;;1562291;74;714;-74
2024/01/14 06:48:06;;;;;;;;;;;17.60;48.50;;;;;;1570615;74;1108;-73
2024/01/14 06:50:09;;;;;;;;;;;17.90;48.80;;;;;;1569283;74;1942;-76
2024/01/14 06:52:11;;;;;;;;;;;17.90;48.80;;;;;;1566587;75;590;-72
2024/01/14 06:54:12;;;;;;;;;;;17.90;48.70;;;;;;1563367;74;711;-74
2024/01/14 06:56:18;;;;;;;;;;;17.90;48.60;;;;;;1560894;74;736;-74
2024/01/14 06:58:18;;;;;;;;;;;17.90;48.60;;;;;;1562820;74;1190;-75
2024/01/14 07:00:20;;;;;;;;;;;17.80;48.60;;;;;;1567119;74;745;-75
2024/01/14 07:02:21;;;;;;;;;;;17.90;48.60;;;;;;1572254;74;663;-76
2024/01/14 07:04:23;;;;;;;;;;;17.90;48.60;;;;;;1569365;74;669;-73
2024/01/14 07:06:25;;;;;;;;;;;17.80;48.60;;;;;;1564512;74;1133;-75
2024/01/14 07:08:27;;;;;;;;;;;17.80;48.60;;;;;;1567622;74;756;-76
2024/01/14 07:10:29;;;;;;;;;;;17.80;48.60;;;;;;1561961;74;1945;-72
2024/01/14 07:12:31;;;;;;;;;;;17.80;48.60;;;;;;1566401;74;705;-73
2024/01/14 07:14:33;;;;;;;;;;;17.90;48.80;;;;;;1565773;74;689;-74
2024/01/14 07:16:35;;;;;;;;;;;17.80;48.60;;;;;;1561493;74;1169;-75
2024/01/14 07:18:37;;;;;;;;;;;17.90;48.80;;;;;;1563849;74;1515;-75
2024/01/14 07:20:41;;;;;;;;;;;17.90;48.90;;;;;;1565717;74;753;-75
2024/01/14 07:22:43;;;;;;;;;;;17.90;49.00;;;;;;1565328;74;776;-74
2024/01/14 07:24:44;;;;;;;;;;;17.80;49.00;;;;;;1567957;74;765;-73
2024/01/14 07:26:46;;;;;;;;;;;17.80;49.10;;;;;;1574229;74;1152;-73
2024/01/14 07:28:48;;;;;;;;;;;17.80;49.00;;;;;;1555834;75;613;-76
2024/01/14 07:30:50;;;;;;;;;;;17.80;49.10;;;;;;1561285;74;1937;-75
2024/01/14 07:32:52;;;;;;;;;;;17.80;49.10;;;;;;1565520;74;747;-74
2024/01/14 07:34:54;;;;;;;;;;;17.80;49.20;;;;;;1553896;74;726;-75
2024/01/14 07:36:56;;;;;;;;;;;17.90;49.30;;;;;;1566732;74;1116;-77
2024/01/14 07:38:59;;;;;;;;;;;17.80;49.10;;;;;;1551683;74;597;-74
2024/01/14 07:41:01;;;;;;;;;;;17.80;49.20;;;;;;1559920;74;725;-73
2024/01/14 07:43:03;;;;;;;;;;;17.80;49.20;;;;;;1574950;74;687;-76
2024/01/14 07:45:07;;;;;;;;;;;17.90;49.30;;;;;;1570695;74;706;-75
2024/01/14 07:47:08;;;;;;;;;;;17.80;49.20;;;;;;1563096;74;1202;-76
2024/01/14 07:49:10;;;;;;;;;;;17.90;49.40;;;;;;1567437;74;716;-76
2024/01/14 07:51:12;;;;;;;;;;;17.80;49.20;;;;;;1575201;74;1969;-77
2024/01/14 07:53:15;;;;;;;;;;;17.80;49.30;;;;;;1559039;74;767;-74
2024/01/14 07:55:17;;;;;;;;;;;17.90;49.40;;;;;;1562698;74;701;-74
2024/01/14 07:57:19;;;;;;;;;;;17.90;49.50;;;;;;1567293;74;1188;-74
2024/01/14 07:59:23;;;;;;;;;;;17.90;49.40;;;;;;1564762;74;633;-75
2024/01/14 08:01:24;;;;;;;;;;;17.90;49.50;;;;;;1555320;74;1634;-77
2024/01/14 08:03:26;;;;;;;;;;;18.00;49.70;;;;;;1566756;74;695;-73
2024/01/14 08:05:28;;;;;;;;;;;18.00;49.70;;;;;;1568080;74;586;-74
2024/01/14 08:07:30;;;;;;;;;;;17.90;49.70;;;;;;1566516;74;1144;-76
2024/01/14 08:09:32;;;;;;;;;;;17.90;49.70;;;;;;1565762;74;643;-72
2024/01/14 08:11:34;;;;;;;;;;;18.00;49.70;;;;;;1566803;74;1962;-75
2024/01/14 08:13:36;;;;;;;;;;;18.00;49.70;;;;;;1570130;74;1522;-75
2024/01/14 08:15:37;;;;;;;;;;;18.00;49.80;;;;;;1567223;74;714;-74
2024/01/14 08:17:39;;;;;;;;;;;17.90;49.80;;;;;;1572116;74;1119;-74
2024/01/14 08:19:41;;;;;;;;;;;17.90;49.80;;;;;;1570662;74;734;-72
2024/01/14 08:21:43;;;;;;;;;;;17.90;49.80;;;;;;1569543;74;606;-74
2024/01/14 08:23:45;;;;;;;;;;;18.00;49.90;;;;;;1559220;74;738;-76
2024/01/14 08:25:47;;;;;;;;;;;18.00;49.90;;;;;;1568548;74;748;-74
2024/01/14 08:27:59;;;;;;;;;;;17.90;49.90;;;;;;1568720;74;1146;-72
2024/01/14 08:29:58;;;;;;;;;;;18.00;49.80;;;;;;1556819;74;1221;-74
2024/01/14 08:32:00;;;;;;;;;;;18.00;49.90;;;;;;1561081;74;1938;-74
2024/01/14 08:34:03;;;;;;;;;;;18.00;49.90;;;;;;1559541;74;639;-75
2024/01/14 08:36:05;;;;;;;;;;;17.90;49.90;;;;;;1562392;74;572;-72
2024/01/14 08:38:07;;;;;;;;;;;18.00;49.80;;;;;;1560966;74;1131;-73
2024/01/14 08:40:12;;;;;;;;;;;18.00;49.90;;;;;;1571205;74;736;-74
2024/01/14 08:42:14;;;;;;;;;;;18.00;49.80;;;;;;1557093;74;1086;-75
2024/01/14 08:44:16;;;;;;;;;;;17.90;50.00;;;;;;1570276;74;817;-77
2024/01/14 08:46:18;;;;;;;;;;;18.00;50.00;;;;;;1568926;74;715;-73
2024/01/14 08:48:20;;;;;;;;;;;18.00;50.00;;;;;;1567622;74;1153;-75
2024/01/14 08:50:22;;;;;;;;;;;18.00;50.00;;;;;;1569112;74;545;-75
2024/01/14 08:52:24;;;;;;;;;;;18.00;50.00;;;;;;1565669;74;1937;-75
2024/01/14 08:54:26;;;;;;;;;;;18.00;50.10;;;;;;1561352;74;637;-71
2024/01/14 08:56:31;;;;;;;;;;;17.90;50.00;;;;;;1562601;74;1148;-70
2024/01/14 08:58:33;;;;;;;;;;;18.00;50.00;;;;;;1569493;74;772;-75
2024/01/14 09:00:35;;;;;;;;;;;18.00;50.00;;;;;;1569673;74;715;-73
2024/01/14 09:02:37;;;;;;;;;;;18.00;49.80;;;;;;1565330;74;663;-75
2024/01/14 09:04:38;;;;;;;;;;;18.00;49.90;;;;;;1560363;74;616;-76
2024/01/14 09:06:40;;;;;;;;;;;18.00;49.90;;;;;;1566476;74;1173;-75
2024/01/14 09:08:42;;;;;;;;;;;17.90;50.00;;;;;;1567665;74;702;-73
2024/01/14 09:10:47;;;;;;;;;;;17.90;50.00;;;;;;1568803;74;1942;-74
2024/01/14 09:12:48;;;;;;;;;;;18.00;49.90;;;;;;1562465;74;1027;-75
2024/01/14 09:14:49;;;;;;;;;;;17.90;49.80;;;;;;1569228;74;671;-71
2024/01/14 09:16:51;;;;;;;;;;;18.00;49.80;;;;;;1566680;74;1318;-74
2024/01/14 09:18:53;;;;;;;;;;;17.90;49.80;;;;;;1560330;74;744;-73
2024/01/14 09:20:55;;;;;;;;;;;18.00;49.80;;;;;;1572193;74;769;-74
2024/01/14 09:22:57;;;;;;;;;;;17.90;49.80;;;;;;1570409;74;794;-75
2024/01/14 09:24:59;;;;;;;;;;;18.00;49.80;;;;;;1564642;74;787;-73
2024/01/14 09:27:03;;;;;;;;;;;18.00;49.90;;;;;;1566233;74;1163;-75
2024/01/14 09:29:05;;;;;;;;;;;18.00;50.10;;;;;;1562266;74;675;-73
2024/01/14 09:31:07;;;;;;;;;;;18.00;50.00;;;;;;1556225;74;1920;-73
2024/01/14 09:33:09;;;;;;;;;;;18.00;50.00;;;;;;1561913;74;605;-75
2024/01/14 09:35:10;;;;;;;;;;;18.00;50.00;;;;;;1566450;74;726;-73
2024/01/14 09:37:12;;;;;;;;;;;18.00;50.00;;;;;;1560354;74;1112;-76
2024/01/14 09:39:15;;;;;;;;;;;18.00;49.70;;;;;;1557636;74;681;-74
2024/01/14 09:41:18;;;;;;;;;;;18.10;49.60;;;;;;1558917;74;707;-74
2024/01/14 09:43:20;;;;;;;;;;;18.10;49.40;;;;;;1527215;75;1014;-76
2024/01/14 09:45:22;;;;;;;;;;;18.20;49.20;;;;;;1563236;74;676;-74
2024/01/14 09:47:24;;;;;;;;;;;18.20;48.90;;;;;;1565374;75;1253;-75
2024/01/14 09:49:26;;;;;;;;;;;18.20;48.80;;;;;;1569094;74;700;-72
2024/01/14 09:51:31;;;;;;;;;;;18.30;48.60;;;;;;1568356;74;1936;-73
2024/01/14 09:53:33;;;;;;;;;;;18.30;48.60;;;;;;1556800;74;601;-76
2024/01/14 09:55:36;;;;;;;;;;;18.30;48.50;;;;;;1558646;74;597;-75
2024/01/14 09:57:38;;;;;;;;;;;18.30;48.40;;;;;;1566203;74;1194;-73
2024/01/14 09:59:40;;;;;;;;;;;18.20;47.90;;;;;;1557838;74;752;-74
2024/01/14 10:01:42;;;;;;;;;;;18.30;48.10;;;;;;1562905;74;666;-74
2024/01/14 10:03:44;;;;;;;;;;;18.20;47.90;;;;;;1558408;74;799;-72
2024/01/14 10:05:46;;;;;;;;;;;18.20;47.80;;;;;;1573083;74;739;-77
2024/01/14 10:07:47;;;;;;;;;;;18.20;47.70;;;;;;1562369;75;1547;-72
2024/01/14 10:09:50;;;;;;;;;;;18.10;47.70;;;;;;1564716;74;682;-72
2024/01/14 10:11:52;;;;;;;;;;;18.10;47.70;;;;;;1563216;74;1900;-73
2024/01/14 10:13:54;;;;;;;;;;;18.10;47.80;;;;;;1574148;74;764;-75
2024/01/14 10:15:56;;;;;;;;;;;18.10;47.60;;;;;;1570247;74;1003;-73
2024/01/14 10:17:58;;;;;;;;;;;18.10;47.60;;;;;;1569551;74;1145;-74
2024/01/14 10:19:59;;;;;;;;;;;18.10;47.60;;;;;;1568577;74;801;-74
2024/01/14 10:22:01;;;;;;;;;;;18.10;47.60;;;;;;1568744;74;750;-76
2024/01/14 10:24:03;;;;;;;;;;;18.10;47.60;;;;;;1524775;76;1204;-77
2024/01/14 10:26:05;;;;;;;;;;;18.10;47.60;;;;;;1562643;74;1113;-77
2024/01/14 10:28:07;;;;;;;;;;;18.10;47.60;;;;;;1561288;74;1319;-74
2024/01/14 10:30:12;;;;;;;;;;;18.00;47.50;;;;;;1566059;74;1241;-74
2024/01/14 10:32:14;;;;;;;;;;;18.10;47.60;;;;;;1566619;74;1911;-76
2024/01/14 10:34:17;;;;;;;;;;;18.10;47.70;;;;;;1566128;74;1101;-74
2024/01/14 10:36:18;;;;;;;;;;;18.10;47.70;;;;;;1563662;74;1269;-74
2024/01/14 10:38:22;;;;;;;;;;;18.10;47.80;;;;;;1560059;74;1133;-76
2024/01/14 10:40:24;;;;;;;;;;;18.10;47.70;;;;;;1563261;74;1112;-73
2024/01/14 10:42:26;;;;;;;;;;;18.10;47.80;;;;;;1567247;74;1077;-72
2024/01/14 10:44:28;;;;;;;;;;;18.10;47.80;;;;;;1566204;74;1061;-76
2024/01/14 10:46:32;;;;;;;;;;;18.00;47.70;;;;;;1570445;74;1161;-74
2024/01/14 10:48:35;;;;;;;;;;;18.00;47.70;;;;;;1565004;74;1128;-73
2024/01/14 10:50:37;;;;;;;;;;;18.00;47.80;;;;;;1562803;74;1505;-70
2024/01/14 10:52:39;;;;;;;;;;;17.70;47.60;;;;;;1561934;74;1953;-76
2024/01/14 10:54:42;;;;;;;;;;;18.10;47.90;;;;;;1566059;74;1105;-77
2024/01/14 10:56:48;;;;;;;;;;;18.10;47.80;;;;;;1556132;74;1158;-74
2024/01/14 10:58:49;;;;;;;;;;;18.10;47.90;;;;;;1562320;74;1112;-76
2024/01/14 11:00:51;;;;;;;;;;;18.10;47.90;;;;;;1565066;74;1099;-76
2024/01/14 11:02:53;;;;;;;;;;;18.10;47.90;;;;;;1565120;74;1083;-75
2024/01/14 11:04:56;;;;;;;;;;;18.10;47.90;;;;;;1567602;74;1496;-75
2024/01/14 11:06:57;;;;;;;;;;;18.00;47.80;;;;;;1558702;74;1184;-76
2024/01/14 11:08:59;;;;;;;;;;;18.10;47.90;;;;;;1565741;74;1128;-75
2024/01/14 11:11:01;;;;;;;;;;;18.10;47.90;;;;;;1563664;74;1098;-75
2024/01/14 11:13:10;;;;;;;;;;;18.00;47.80;;;;;;1561995;74;1947;-76
2024/01/14 11:15:32;;;;;;;;;;;18.00;47.80;;;;;;1566210;74;1090;-73
2024/01/14 11:17:47;;;;;;;;;;;18.10;48.00;;;;;;1563456;74;1620;-74
2024/01/14 11:19:50;;;;;;;;;;;18.10;48.00;;;;;;1563652;74;1491;-73
2024/01/14 11:21:57;;;;;;;;;;;18.10;48.00;;;;;;1567618;74;1050;-73
2024/01/14 11:23:59;;;;;;;;;;;18.10;48.10;;;;;;1563286;74;1140;-74
2024/01/14 11:26:01;;;;;;;;;;;18.10;48.00;;;;;;1567443;74;1214;-76
2024/01/14 11:28:03;;;;;;;;;;;18.10;48.00;;;;;;1569635;74;1199;-77
2024/01/14 11:30:07;;;;;;;;;;;18.10;48.00;;;;;;1561337;74;1075;-76
2024/01/14 11:32:09;;;;;;;;;;;18.10;48.10;;;;;;1572199;74;1946;-75
2024/01/14 11:34:11;;;;;;;;;;;18.10;48.00;;;;;;1559988;74;1090;-74
2024/01/14 11:36:13;;;;;;;;;;;18.10;48.00;;;;;;1564632;74;1154;-73
2024/01/14 11:38:37;;;;;;;;;;;17.90;47.90;;;;;;1567935;74;1141;-74
2024/01/14 11:40:38;;;;;;;;;;;18.10;48.00;;;;;;1563801;74;1112;-73
2024/01/14 11:42:49;;;;;;;;;;;18.10;48.00;;;;;;1559386;74;865;-75
2024/01/14 11:44:47;;;;;;;;;;;18.10;48.10;;;;;;1553942;74;1092;-76
2024/01/14 11:46:49;;;;;;;;;;;18.00;47.90;;;;;;1519727;76;1514;-75
2024/01/14 11:48:51;;;;;;;;;;;18.10;48.10;;;;;;1519115;76;701;-72
2024/01/14 11:50:53;;;;;;;;;;;18.00;48.00;;;;;;1565509;74;648;-76
2024/01/14 11:52:55;;;;;;;;;;;18.10;48.10;;;;;;1558707;74;1935;-74
2024/01/14 11:54:57;;;;;;;;;;;18.00;48.00;;;;;;1525777;76;1075;-76
2024/01/14 11:57:01;;;;;;;;;;;18.10;48.20;;;;;;1566185;74;1235;-76
2024/01/14 11:59:13;;;;;;;;;;;18.10;48.20;;;;;;1562883;74;739;-73
2024/01/14 12:01:14;;;;;;;;;;;18.10;48.10;;;;;;1554600;74;1477;-75
2024/01/14 12:03:18;;;;;;;;;;;18.00;47.90;;;;;;1569125;73;720;-76
2024/01/14 12:05:20;;;;;;;;;;;18.00;47.90;;;;;;1566637;74;1044;-75
2024/01/14 12:07:22;;;;;;;;;;;18.00;47.80;;;;;;1567620;74;1145;-78
2024/01/14 12:09:24;;;;;;;;;;;18.10;47.90;;;;;;1558000;74;627;-75